sensor_id;sensor_type;location;lat;lon;timestamp;noise_LAeq;noise_LA_min;noise_LA_max;noise_LA01;noise_LA95
36217;Laerm;22259;48.792;8.964;2023-06-22T00:00:27;42.57;39.92;45.77;;
36217;Laerm;22259;48.792;8.964;2023-06-22T00:02:52;42.46;39.95;47.04;;
36217;Laerm;22259;48.792;8.964;2023-06-22T00:05:18;42.47;39.28;46.88;;
36217;Laerm;22259;48.792;8.964;2023-06-22T00:07:43;42.19;39.18;45.80;;
36217;Laerm;22259;48.792;8.964;2023-06-22T00:10:09;42.64;39.49;45.70;;
36217;Laerm;22259;48.792;8.964;2023-06-22T00:12:34;41.68;38.74;57.80;;
36217;Laerm;22259;48.792;8.964;2023-06-22T00:14:59;42.40;39.15;45.23;;
36217;Laerm;22259;48.792;8.964;2023-06-22T00:17:25;42.26;38.78;46.46;;
36217;Laerm;22259;48.792;8.964;2023-06-22T00:19:50;42.90;39.75;45.18;;
36217;Laerm;22259;48.792;8.964;2023-06-22T00:22:18;42.26;39.28;45.59;;
36217;Laerm;22259;48.792;8.964;2023-06-22T00:24:53;42.41;39.02;50.17;;
36217;Laerm;22259;48.792;8.964;2023-06-22T00:27:18;42.93;40.18;45.18;;
36217;Laerm;22259;48.792;8.964;2023-06-22T00:29:43;42.74;39.40;44.69;;
36217;Laerm;22259;48.792;8.964;2023-06-22T00:32:09;43.26;40.26;45.74;;
36217;Laerm;22259;48.792;8.964;2023-06-22T00:34:34;42.65;39.89;45.05;;
36217;Laerm;22259;48.792;8.964;2023-06-22T00:37:00;42.53;39.49;44.74;;
36217;Laerm;22259;48.792;8.964;2023-06-22T00:39:25;42.87;39.78;48.88;;
36217;Laerm;22259;48.792;8.964;2023-06-22T00:41:50;42.45;39.12;49.11;;
36217;Laerm;22259;48.792;8.964;2023-06-22T00:44:16;42.01;38.63;45.19;;
36217;Laerm;22259;48.792;8.964;2023-06-22T00:46:41;41.99;39.18;47.62;;
36217;Laerm;22259;48.792;8.964;2023-06-22T00:49:06;42.55;39.67;45.97;;
36217;Laerm;22259;48.792;8.964;2023-06-22T00:51:32;41.87;39.18;56.39;;
36217;Laerm;22259;48.792;8.964;2023-06-22T00:53:57;41.68;39.08;43.88;;
36217;Laerm;22259;48.792;8.964;2023-06-22T00:56:23;41.75;38.98;44.74;;
36217;Laerm;22259;48.792;8.964;2023-06-22T00:58:49;42.54;39.12;45.65;;
36217;Laerm;22259;48.792;8.964;2023-06-22T01:01:17;41.27;37.75;44.42;;
36217;Laerm;22259;48.792;8.964;2023-06-22T01:03:48;41.00;37.32;43.61;;
36217;Laerm;22259;48.792;8.964;2023-06-22T01:06:15;41.08;38.29;44.67;;
36217;Laerm;22259;48.792;8.964;2023-06-22T01:08:49;41.07;38.63;43.96;;
36217;Laerm;22259;48.792;8.964;2023-06-22T01:11:20;41.00;38.33;43.99;;
36217;Laerm;22259;48.792;8.964;2023-06-22T01:16:34;41.53;38.67;44.48;;
36217;Laerm;22259;48.792;8.964;2023-06-22T01:19:01;42.10;38.33;47.28;;
36217;Laerm;22259;48.792;8.964;2023-06-22T01:21:30;42.25;38.29;49.72;;
36217;Laerm;22259;48.792;8.964;2023-06-22T01:24:15;42.58;38.49;48.09;;
36217;Laerm;22259;48.792;8.964;2023-06-22T01:26:54;41.82;39.05;44.19;;
36217;Laerm;22259;48.792;8.964;2023-06-22T01:29:22;42.07;38.85;45.02;;
36217;Laerm;22259;48.792;8.964;2023-06-22T01:31:49;42.33;39.46;44.66;;
36217;Laerm;22259;48.792;8.964;2023-06-22T01:34:15;43.19;40.71;46.69;;
36217;Laerm;22259;48.792;8.964;2023-06-22T01:36:41;42.50;39.73;44.91;;
36217;Laerm;22259;48.792;8.964;2023-06-22T01:39:07;42.45;39.55;44.43;;
36217;Laerm;22259;48.792;8.964;2023-06-22T01:41:37;42.33;39.61;44.86;;
36217;Laerm;22259;48.792;8.964;2023-06-22T01:44:04;43.31;40.62;45.83;;
36217;Laerm;22259;48.792;8.964;2023-06-22T01:46:30;42.89;40.03;45.20;;
36217;Laerm;22259;48.792;8.964;2023-06-22T01:48:55;42.54;40.27;44.56;;
36217;Laerm;22259;48.792;8.964;2023-06-22T01:51:21;43.17;40.13;48.33;;
36217;Laerm;22259;48.792;8.964;2023-06-22T01:53:46;42.19;40.13;44.50;;
36217;Laerm;22259;48.792;8.964;2023-06-22T01:56:13;42.19;38.78;45.12;;
36217;Laerm;22259;48.792;8.964;2023-06-22T01:58:41;42.71;39.97;46.18;;
36217;Laerm;22259;48.792;8.964;2023-06-22T02:01:11;46.86;39.14;62.86;;
36217;Laerm;22259;48.792;8.964;2023-06-22T02:03:38;42.36;39.55;59.42;;
36217;Laerm;22259;48.792;8.964;2023-06-22T02:06:06;42.49;39.67;52.67;;
36217;Laerm;22259;48.792;8.964;2023-06-22T02:08:43;42.92;39.97;46.89;;
36217;Laerm;22259;48.792;8.964;2023-06-22T02:11:11;43.52;40.21;49.89;;
36217;Laerm;22259;48.792;8.964;2023-06-22T02:13:38;43.19;40.89;45.49;;
36217;Laerm;22259;48.792;8.964;2023-06-22T02:16:08;51.13;39.81;69.52;;
36217;Laerm;22259;48.792;8.964;2023-06-22T02:18:33;43.37;40.85;46.08;;
36217;Laerm;22259;48.792;8.964;2023-06-22T02:21:00;43.73;41.46;51.29;;
36217;Laerm;22259;48.792;8.964;2023-06-22T02:23:26;43.58;41.20;48.66;;
36217;Laerm;22259;48.792;8.964;2023-06-22T02:25:51;44.54;41.03;51.86;;
36217;Laerm;22259;48.792;8.964;2023-06-22T02:28:17;44.92;42.16;54.42;;
36217;Laerm;22259;48.792;8.964;2023-06-22T02:30:42;47.30;41.63;60.12;;
36217;Laerm;22259;48.792;8.964;2023-06-22T02:33:07;47.11;42.62;61.19;;
36217;Laerm;22259;48.792;8.964;2023-06-22T02:35:33;56.26;42.27;71.06;;
36217;Laerm;22259;48.792;8.964;2023-06-22T02:38:00;57.53;42.62;71.53;;
36217;Laerm;22259;48.792;8.964;2023-06-22T02:40:27;55.66;43.48;69.49;;
36217;Laerm;22259;48.792;8.964;2023-06-22T02:42:52;56.14;43.54;70.56;;
36217;Laerm;22259;48.792;8.964;2023-06-22T02:45:17;59.73;43.01;72.88;;
36217;Laerm;22259;48.792;8.964;2023-06-22T02:47:43;56.52;42.19;70.46;;
36217;Laerm;22259;48.792;8.964;2023-06-22T02:50:08;60.03;42.79;72.23;;
36217;Laerm;22259;48.792;8.964;2023-06-22T02:52:34;48.12;41.97;63.64;;
36217;Laerm;22259;48.792;8.964;2023-06-22T02:54:59;48.97;42.24;63.97;;
36217;Laerm;22259;48.792;8.964;2023-06-22T02:57:25;50.95;42.97;65.03;;
36217;Laerm;22259;48.792;8.964;2023-06-22T02:59:50;50.83;42.90;63.60;;
36217;Laerm;22259;48.792;8.964;2023-06-22T03:02:15;49.08;42.65;62.88;;
36217;Laerm;22259;48.792;8.964;2023-06-22T03:04:41;46.20;42.14;54.18;;
36217;Laerm;22259;48.792;8.964;2023-06-22T03:07:07;45.51;42.50;54.82;;
36217;Laerm;22259;48.792;8.964;2023-06-22T03:09:33;46.46;43.29;55.61;;
36217;Laerm;22259;48.792;8.964;2023-06-22T03:11:58;46.22;42.32;56.09;;
36217;Laerm;22259;48.792;8.964;2023-06-22T03:14:23;46.04;42.47;63.96;;
36217;Laerm;22259;48.792;8.964;2023-06-22T03:16:49;56.07;41.61;73.82;;
36217;Laerm;22259;48.792;8.964;2023-06-22T03:19:14;45.48;41.70;60.20;;
36217;Laerm;22259;48.792;8.964;2023-06-22T03:21:40;44.92;41.82;57.43;;
36217;Laerm;22259;48.792;8.964;2023-06-22T03:24:08;53.36;41.72;69.11;;
36217;Laerm;22259;48.792;8.964;2023-06-22T03:26:34;48.67;42.40;64.14;;
36217;Laerm;22259;48.792;8.964;2023-06-22T03:28:59;47.09;43.42;58.69;;
36217;Laerm;22259;48.792;8.964;2023-06-22T03:31:25;57.22;42.78;72.58;;
36217;Laerm;22259;48.792;8.964;2023-06-22T03:33:50;45.82;42.59;53.63;;
36217;Laerm;22259;48.792;8.964;2023-06-22T03:36:16;46.84;43.43;62.57;;
36217;Laerm;22259;48.792;8.964;2023-06-22T03:38:45;45.23;42.83;51.86;;
36217;Laerm;22259;48.792;8.964;2023-06-22T03:41:11;45.60;43.29;53.28;;
36217;Laerm;22259;48.792;8.964;2023-06-22T03:43:36;47.41;43.17;58.96;;
36217;Laerm;22259;48.792;8.964;2023-06-22T03:46:02;56.43;43.27;74.45;;
36217;Laerm;22259;48.792;8.964;2023-06-22T03:48:27;54.39;44.18;71.14;;
36217;Laerm;22259;48.792;8.964;2023-06-22T03:50:53;47.20;43.80;54.67;;
36217;Laerm;22259;48.792;8.964;2023-06-22T03:53:18;45.90;42.03;58.82;;
36217;Laerm;22259;48.792;8.964;2023-06-22T03:55:50;45.43;42.71;54.91;;
36217;Laerm;22259;48.792;8.964;2023-06-22T03:58:16;45.75;42.65;55.75;;
36217;Laerm;22259;48.792;8.964;2023-06-22T04:00:41;55.09;43.18;71.09;;
36217;Laerm;22259;48.792;8.964;2023-06-22T04:03:06;47.49;43.26;57.73;;
36217;Laerm;22259;48.792;8.964;2023-06-22T04:05:32;52.27;42.68;66.65;;
36217;Laerm;22259;48.792;8.964;2023-06-22T04:07:58;51.84;43.00;70.10;;
36217;Laerm;22259;48.792;8.964;2023-06-22T04:10:23;47.08;43.84;56.20;;
36217;Laerm;22259;48.792;8.964;2023-06-22T04:12:48;47.09;43.79;53.53;;
36217;Laerm;22259;48.792;8.964;2023-06-22T04:15:14;55.13;43.13;69.95;;
36217;Laerm;22259;48.792;8.964;2023-06-22T04:17:39;55.95;44.30;69.72;;
36217;Laerm;22259;48.792;8.964;2023-06-22T04:20:05;47.43;44.40;52.39;;
36217;Laerm;22259;48.792;8.964;2023-06-22T04:22:30;47.84;44.34;57.93;;
36217;Laerm;22259;48.792;8.964;2023-06-22T04:24:56;52.36;44.65;67.40;;
36217;Laerm;22259;48.792;8.964;2023-06-22T04:27:21;47.97;43.25;57.55;;
36217;Laerm;22259;48.792;8.964;2023-06-22T04:29:48;48.92;43.42;69.74;;
36217;Laerm;22259;48.792;8.964;2023-06-22T04:32:14;53.13;42.81;68.34;;
36217;Laerm;22259;48.792;8.964;2023-06-22T04:34:40;53.47;42.93;68.85;;
36217;Laerm;22259;48.792;8.964;2023-06-22T04:37:05;51.03;42.47;68.20;;
36217;Laerm;22259;48.792;8.964;2023-06-22T04:39:31;45.19;43.15;51.87;;
36217;Laerm;22259;48.792;8.964;2023-06-22T04:41:56;50.27;42.29;67.89;;
36217;Laerm;22259;48.792;8.964;2023-06-22T04:47:34;56.10;43.10;69.65;;
36217;Laerm;22259;48.792;8.964;2023-06-22T04:49:59;45.21;42.30;55.13;;
36217;Laerm;22259;48.792;8.964;2023-06-22T04:52:30;44.39;42.24;55.60;;
36217;Laerm;22259;48.792;8.964;2023-06-22T04:54:56;44.08;42.14;52.48;;
36217;Laerm;22259;48.792;8.964;2023-06-22T04:57:22;44.03;41.50;48.72;;
36217;Laerm;22259;48.792;8.964;2023-06-22T05:00:00;46.63;41.94;71.50;;
36217;Laerm;22259;48.792;8.964;2023-06-22T05:02:26;56.18;41.72;71.26;;
36217;Laerm;22259;48.792;8.964;2023-06-22T05:04:52;44.34;42.24;57.17;;
36217;Laerm;22259;48.792;8.964;2023-06-22T05:07:21;51.11;42.03;69.32;;
36217;Laerm;22259;48.792;8.964;2023-06-22T05:09:50;59.07;41.59;70.88;;
36217;Laerm;22259;48.792;8.964;2023-06-22T05:12:15;49.41;41.88;66.02;;
36217;Laerm;22259;48.792;8.964;2023-06-22T05:14:41;56.43;42.65;72.04;;
36217;Laerm;22259;48.792;8.964;2023-06-22T05:17:06;44.65;42.43;53.02;;
36217;Laerm;22259;48.792;8.964;2023-06-22T05:19:38;44.22;42.52;53.89;;
36217;Laerm;22259;48.792;8.964;2023-06-22T05:22:04;53.37;42.03;66.95;;
36217;Laerm;22259;48.792;8.964;2023-06-22T05:24:31;44.11;41.99;50.59;;
36217;Laerm;22259;48.792;8.964;2023-06-22T05:26:57;45.82;42.46;53.94;;
36217;Laerm;22259;48.792;8.964;2023-06-22T05:29:22;47.09;42.22;61.57;;
36217;Laerm;22259;48.792;8.964;2023-06-22T05:31:48;56.01;42.35;73.00;;
36217;Laerm;22259;48.792;8.964;2023-06-22T05:34:14;54.78;42.13;71.19;;
36217;Laerm;22259;48.792;8.964;2023-06-22T05:36:39;43.93;41.36;52.46;;
36217;Laerm;22259;48.792;8.964;2023-06-22T05:39:11;51.24;41.89;69.70;;
36217;Laerm;22259;48.792;8.964;2023-06-22T05:41:38;49.98;42.76;67.10;;
36217;Laerm;22259;48.792;8.964;2023-06-22T05:44:04;53.88;42.97;72.44;;
36217;Laerm;22259;48.792;8.964;2023-06-22T05:46:29;53.28;43.05;70.37;;
36217;Laerm;22259;48.792;8.964;2023-06-22T05:48:54;44.72;42.46;49.87;;
36217;Laerm;22259;48.792;8.964;2023-06-22T05:51:20;53.42;42.09;68.74;;
36217;Laerm;22259;48.792;8.964;2023-06-22T05:53:45;44.45;42.35;52.48;;
36217;Laerm;22259;48.792;8.964;2023-06-22T05:56:14;47.86;42.62;59.96;;
36217;Laerm;22259;48.792;8.964;2023-06-22T05:58:40;47.36;42.37;60.34;;
36217;Laerm;22259;48.792;8.964;2023-06-22T06:01:05;56.74;42.43;73.16;;
36217;Laerm;22259;48.792;8.964;2023-06-22T06:03:31;52.65;42.43;65.55;;
36217;Laerm;22259;48.792;8.964;2023-06-22T06:05:56;51.50;41.70;68.72;;
36217;Laerm;22259;48.792;8.964;2023-06-22T06:08:21;45.31;42.29;54.70;;
36217;Laerm;22259;48.792;8.964;2023-06-22T06:10:47;51.80;41.96;70.90;;
36217;Laerm;22259;48.792;8.964;2023-06-22T06:13:12;45.27;42.44;56.53;;
36217;Laerm;22259;48.792;8.964;2023-06-22T06:15:37;55.51;42.62;69.84;;
36217;Laerm;22259;48.792;8.964;2023-06-22T06:18:03;54.23;42.08;71.88;;
36217;Laerm;22259;48.792;8.964;2023-06-22T06:20:30;45.43;42.30;65.77;;
36217;Laerm;22259;48.792;8.964;2023-06-22T06:22:56;55.25;42.53;74.70;;
36217;Laerm;22259;48.792;8.964;2023-06-22T06:25:22;44.85;42.69;55.69;;
36217;Laerm;22259;48.792;8.964;2023-06-22T06:27:49;45.23;42.55;58.52;;
36217;Laerm;22259;48.792;8.964;2023-06-22T06:30:15;45.35;42.05;65.22;;
36217;Laerm;22259;48.792;8.964;2023-06-22T06:32:41;46.19;41.94;61.13;;
36217;Laerm;22259;48.792;8.964;2023-06-22T06:35:07;45.25;42.06;65.00;;
36217;Laerm;22259;48.792;8.964;2023-06-22T06:37:35;52.36;41.88;70.90;;
36217;Laerm;22259;48.792;8.964;2023-06-22T06:40:01;56.09;41.57;72.04;;
36217;Laerm;22259;48.792;8.964;2023-06-22T06:42:26;52.86;42.19;68.11;;
36217;Laerm;22259;48.792;8.964;2023-06-22T06:44:51;57.13;42.32;72.32;;
36217;Laerm;22259;48.792;8.964;2023-06-22T06:47:17;47.09;42.14;64.34;;
36217;Laerm;22259;48.792;8.964;2023-06-22T06:49:42;48.03;41.93;62.34;;
36217;Laerm;22259;48.792;8.964;2023-06-22T06:52:07;53.22;42.16;66.41;;
36217;Laerm;22259;48.792;8.964;2023-06-22T06:54:33;45.26;41.99;65.55;;
36217;Laerm;22259;48.792;8.964;2023-06-22T06:56:58;45.28;41.40;62.59;;
36217;Laerm;22259;48.792;8.964;2023-06-22T06:59:24;45.50;41.20;60.71;;
36217;Laerm;22259;48.792;8.964;2023-06-22T07:01:49;54.24;41.89;72.51;;
36217;Laerm;22259;48.792;8.964;2023-06-22T07:04:14;47.30;42.03;63.29;;
36217;Laerm;22259;48.792;8.964;2023-06-22T07:06:40;55.07;42.04;71.66;;
36217;Laerm;22259;48.792;8.964;2023-06-22T07:09:05;45.36;42.03;56.30;;
36217;Laerm;22259;48.792;8.964;2023-06-22T07:11:30;44.95;42.24;51.87;;
36217;Laerm;22259;48.792;8.964;2023-06-22T07:13:56;52.98;41.94;71.49;;
36217;Laerm;22259;48.792;8.964;2023-06-22T07:16:21;56.81;42.65;71.35;;
36217;Laerm;22259;48.792;8.964;2023-06-22T07:18:48;47.94;42.06;64.67;;
36217;Laerm;22259;48.792;8.964;2023-06-22T07:21:13;55.81;42.27;74.03;;
36217;Laerm;22259;48.792;8.964;2023-06-22T07:23:38;44.90;42.01;58.66;;
36217;Laerm;22259;48.792;8.964;2023-06-22T07:26:04;44.75;41.77;58.38;;
36217;Laerm;22259;48.792;8.964;2023-06-22T07:28:31;44.67;41.70;52.56;;
36217;Laerm;22259;48.792;8.964;2023-06-22T07:31:02;45.37;41.94;60.35;;
36217;Laerm;22259;48.792;8.964;2023-06-22T07:33:28;56.50;42.65;70.99;;
36217;Laerm;22259;48.792;8.964;2023-06-22T07:35:53;48.31;42.61;70.08;;
36217;Laerm;22259;48.792;8.964;2023-06-22T07:38:18;45.72;42.26;59.08;;
36217;Laerm;22259;48.792;8.964;2023-06-22T07:40:45;46.65;42.26;63.21;;
36217;Laerm;22259;48.792;8.964;2023-06-22T07:43:10;48.69;42.00;69.50;;
36217;Laerm;22259;48.792;8.964;2023-06-22T07:45:37;54.66;41.68;70.41;;
36217;Laerm;22259;48.792;8.964;2023-06-22T07:48:03;45.32;42.13;61.30;;
36217;Laerm;22259;48.792;8.964;2023-06-22T07:50:28;46.34;42.18;62.92;;
36217;Laerm;22259;48.792;8.964;2023-06-22T07:52:53;46.73;42.50;64.95;;
36217;Laerm;22259;48.792;8.964;2023-06-22T07:55:19;53.65;42.97;68.75;;
36217;Laerm;22259;48.792;8.964;2023-06-22T07:57:46;45.04;42.35;55.59;;
36217;Laerm;22259;48.792;8.964;2023-06-22T08:00:12;61.36;41.64;78.10;;
36217;Laerm;22259;48.792;8.964;2023-06-22T08:02:40;54.42;42.29;69.85;;
36217;Laerm;22259;48.792;8.964;2023-06-22T08:05:06;43.80;41.26;51.48;;
36217;Laerm;22259;48.792;8.964;2023-06-22T08:07:33;43.99;41.02;60.97;;
36217;Laerm;22259;48.792;8.964;2023-06-22T08:09:58;43.94;40.62;52.67;;
36217;Laerm;22259;48.792;8.964;2023-06-22T08:12:24;44.53;41.66;60.81;;
36217;Laerm;22259;48.792;8.964;2023-06-22T08:14:49;55.09;40.91;72.38;;
36217;Laerm;22259;48.792;8.964;2023-06-22T08:17:15;52.71;41.96;67.74;;
36217;Laerm;22259;48.792;8.964;2023-06-22T08:19:40;44.22;40.89;55.79;;
36217;Laerm;22259;48.792;8.964;2023-06-22T08:22:06;48.79;41.16;64.89;;
36217;Laerm;22259;48.792;8.964;2023-06-22T08:24:31;59.39;40.76;76.22;;
36217;Laerm;22259;48.792;8.964;2023-06-22T08:26:57;47.13;40.60;65.87;;
36217;Laerm;22259;48.792;8.964;2023-06-22T08:29:22;44.16;41.10;53.57;;
36217;Laerm;22259;48.792;8.964;2023-06-22T08:31:47;56.03;41.34;70.25;;
36217;Laerm;22259;48.792;8.964;2023-06-22T08:34:13;44.35;41.57;56.64;;
36217;Laerm;22259;48.792;8.964;2023-06-22T08:36:38;58.66;41.28;76.77;;
36217;Laerm;22259;48.792;8.964;2023-06-22T08:39:10;46.09;41.50;63.70;;
36217;Laerm;22259;48.792;8.964;2023-06-22T08:41:35;46.59;40.89;63.80;;
36217;Laerm;22259;48.792;8.964;2023-06-22T08:44:01;45.19;41.30;60.89;;
36217;Laerm;22259;48.792;8.964;2023-06-22T08:46:26;56.91;41.26;71.64;;
36217;Laerm;22259;48.792;8.964;2023-06-22T08:48:58;44.98;41.09;61.46;;
36217;Laerm;22259;48.792;8.964;2023-06-22T08:51:24;60.18;41.40;76.68;;
36217;Laerm;22259;48.792;8.964;2023-06-22T08:53:49;45.00;40.69;57.53;;
36217;Laerm;22259;48.792;8.964;2023-06-22T08:56:15;48.38;41.02;63.12;;
36217;Laerm;22259;48.792;8.964;2023-06-22T08:58:40;44.25;40.91;57.87;;
36217;Laerm;22259;48.792;8.964;2023-06-22T09:01:06;56.13;40.78;72.34;;
36217;Laerm;22259;48.792;8.964;2023-06-22T09:03:31;50.86;40.57;67.00;;
36217;Laerm;22259;48.792;8.964;2023-06-22T09:05:58;44.30;40.73;58.69;;
36217;Laerm;22259;48.792;8.964;2023-06-22T09:08:23;43.03;40.03;57.64;;
36217;Laerm;22259;48.792;8.964;2023-06-22T09:10:49;43.23;39.55;60.47;;
36217;Laerm;22259;48.792;8.964;2023-06-22T09:13:14;43.74;40.89;55.16;;
36217;Laerm;22259;48.792;8.964;2023-06-22T09:15:40;56.02;40.78;71.86;;
36217;Laerm;22259;48.792;8.964;2023-06-22T09:18:05;50.05;40.60;63.41;;
36217;Laerm;22259;48.792;8.964;2023-06-22T09:20:30;55.51;40.91;72.95;;
36217;Laerm;22259;48.792;8.964;2023-06-22T09:22:56;43.42;40.18;55.39;;
36217;Laerm;22259;48.792;8.964;2023-06-22T09:25:21;44.87;40.50;57.30;;
36217;Laerm;22259;48.792;8.964;2023-06-22T09:27:47;44.82;41.50;59.40;;
36217;Laerm;22259;48.792;8.964;2023-06-22T09:30:12;54.70;40.53;70.21;;
36217;Laerm;22259;48.792;8.964;2023-06-22T09:32:38;49.16;40.89;66.90;;
36217;Laerm;22259;48.792;8.964;2023-06-22T09:35:04;61.26;41.46;77.13;;
36217;Laerm;22259;48.792;8.964;2023-06-22T09:37:30;44.77;40.50;61.79;;
36217;Laerm;22259;48.792;8.964;2023-06-22T09:39:56;50.70;41.50;67.65;;
36217;Laerm;22259;48.792;8.964;2023-06-22T09:42:21;47.71;41.64;67.29;;
36217;Laerm;22259;48.792;8.964;2023-06-22T09:44:47;53.08;41.22;68.79;;
36217;Laerm;22259;48.792;8.964;2023-06-22T09:47:12;53.66;41.16;72.88;;
36217;Laerm;22259;48.792;8.964;2023-06-22T09:49:37;54.41;41.55;72.51;;
36217;Laerm;22259;48.792;8.964;2023-06-22T09:52:03;43.74;40.41;58.68;;
36217;Laerm;22259;48.792;8.964;2023-06-22T09:54:28;44.21;41.04;58.89;;
36217;Laerm;22259;48.792;8.964;2023-06-22T09:56:54;44.03;40.55;56.84;;
36217;Laerm;22259;48.792;8.964;2023-06-22T09:59:19;53.65;40.28;71.50;;
36217;Laerm;22259;48.792;8.964;2023-06-22T10:01:44;54.10;39.84;69.54;;
36217;Laerm;22259;48.792;8.964;2023-06-22T10:04:10;42.76;40.13;51.47;;
36217;Laerm;22259;48.792;8.964;2023-06-22T10:06:35;43.22;39.89;52.97;;
36217;Laerm;22259;48.792;8.964;2023-06-22T10:09:01;43.28;39.95;54.80;;
36217;Laerm;22259;48.792;8.964;2023-06-22T10:11:26;43.31;39.58;54.08;;
36217;Laerm;22259;48.792;8.964;2023-06-22T10:13:55;43.12;40.41;53.47;;
36217;Laerm;22259;48.792;8.964;2023-06-22T10:16:20;57.27;40.11;76.91;;
36217;Laerm;22259;48.792;8.964;2023-06-22T10:18:46;53.28;40.08;68.99;;
36217;Laerm;22259;48.792;8.964;2023-06-22T10:21:11;45.05;39.95;57.30;;
36217;Laerm;22259;48.792;8.964;2023-06-22T10:23:36;45.75;40.13;62.53;;
36217;Laerm;22259;48.792;8.964;2023-06-22T10:26:02;44.47;40.05;58.47;;
36217;Laerm;22259;48.792;8.964;2023-06-22T10:28:27;42.69;39.49;56.66;;
36217;Laerm;22259;48.792;8.964;2023-06-22T10:30:53;55.87;40.78;73.40;;
36217;Laerm;22259;48.792;8.964;2023-06-22T10:33:18;55.10;41.61;71.53;;
36217;Laerm;22259;48.792;8.964;2023-06-22T10:35:44;46.39;40.50;60.48;;
36217;Laerm;22259;48.792;8.964;2023-06-22T10:38:09;45.66;40.33;61.40;;
36217;Laerm;22259;48.792;8.964;2023-06-22T10:40:34;45.05;40.05;62.39;;
36217;Laerm;22259;48.792;8.964;2023-06-22T10:43:00;45.68;40.28;65.16;;
36217;Laerm;22259;48.792;8.964;2023-06-22T10:45:25;55.17;40.36;71.67;;
36217;Laerm;22259;48.792;8.964;2023-06-22T10:47:52;53.08;39.64;69.95;;
36217;Laerm;22259;48.792;8.964;2023-06-22T10:50:17;42.89;39.97;50.31;;
36217;Laerm;22259;48.792;8.964;2023-06-22T10:52:43;43.58;40.91;53.60;;
36217;Laerm;22259;48.792;8.964;2023-06-22T10:55:09;42.60;39.52;56.47;;
36217;Laerm;22259;48.792;8.964;2023-06-22T10:57:34;42.41;39.87;49.36;;
36217;Laerm;22259;48.792;8.964;2023-06-22T10:59:59;43.03;40.23;59.51;;
36217;Laerm;22259;48.792;8.964;2023-06-22T11:02:25;56.45;40.28;71.45;;
36217;Laerm;22259;48.792;8.964;2023-06-22T11:04:51;42.84;40.05;56.92;;
36217;Laerm;22259;48.792;8.964;2023-06-22T11:07:16;44.56;39.73;64.38;;
36217;Laerm;22259;48.792;8.964;2023-06-22T11:09:43;46.58;39.70;64.07;;
36217;Laerm;22259;48.792;8.964;2023-06-22T11:12:08;44.54;40.85;60.42;;
36217;Laerm;22259;48.792;8.964;2023-06-22T11:14:34;54.40;41.46;71.34;;
36217;Laerm;22259;48.792;8.964;2023-06-22T11:16:59;55.14;40.62;72.67;;
36217;Laerm;22259;48.792;8.964;2023-06-22T11:19:24;43.03;40.28;52.80;;
36217;Laerm;22259;48.792;8.964;2023-06-22T11:21:50;43.59;40.60;52.53;;
36217;Laerm;22259;48.792;8.964;2023-06-22T11:24:16;45.89;39.75;62.81;;
36217;Laerm;22259;48.792;8.964;2023-06-22T11:26:41;45.79;40.21;59.61;;
36217;Laerm;22259;48.792;8.964;2023-06-22T11:29:06;44.71;39.92;59.85;;
36217;Laerm;22259;48.792;8.964;2023-06-22T11:31:33;56.26;41.28;70.91;;
36217;Laerm;22259;48.792;8.964;2023-06-22T11:33:59;62.15;41.51;77.30;;
36217;Laerm;22259;48.792;8.964;2023-06-22T11:36:24;46.49;41.04;60.36;;
36217;Laerm;22259;48.792;8.964;2023-06-22T11:38:50;43.14;40.69;49.70;;
36217;Laerm;22259;48.792;8.964;2023-06-22T11:41:15;43.02;40.60;48.29;;
36217;Laerm;22259;48.792;8.964;2023-06-22T11:43:41;43.91;40.76;49.49;;
36217;Laerm;22259;48.792;8.964;2023-06-22T11:46:06;56.34;40.33;73.70;;
36217;Laerm;22259;48.792;8.964;2023-06-22T11:48:31;54.06;40.41;71.75;;
36217;Laerm;22259;48.792;8.964;2023-06-22T11:50:57;50.45;41.48;70.18;;
36217;Laerm;22259;48.792;8.964;2023-06-22T11:53:26;46.05;41.51;66.32;;
36217;Laerm;22259;48.792;8.964;2023-06-22T11:55:51;44.05;41.75;48.92;;
36217;Laerm;22259;48.792;8.964;2023-06-22T11:58:17;44.03;40.76;57.39;;
36217;Laerm;22259;48.792;8.964;2023-06-22T12:00:43;55.07;40.76;71.31;;
36217;Laerm;22259;48.792;8.964;2023-06-22T12:03:08;53.59;41.63;71.12;;
36217;Laerm;22259;48.792;8.964;2023-06-22T12:05:34;43.24;41.02;50.29;;
36217;Laerm;22259;48.792;8.964;2023-06-22T12:07:59;43.65;40.93;59.43;;
36217;Laerm;22259;48.792;8.964;2023-06-22T12:10:25;43.34;40.23;52.24;;
36217;Laerm;22259;48.792;8.964;2023-06-22T12:12:51;42.60;39.81;50.77;;
36217;Laerm;22259;48.792;8.964;2023-06-22T12:15:16;56.68;40.11;71.44;;
36217;Laerm;22259;48.792;8.964;2023-06-22T12:17:42;54.80;40.82;75.01;;
36217;Laerm;22259;48.792;8.964;2023-06-22T12:20:08;51.41;40.93;67.40;;
36217;Laerm;22259;48.792;8.964;2023-06-22T12:22:33;46.71;41.16;63.56;;
36217;Laerm;22259;48.792;8.964;2023-06-22T12:24:59;49.08;41.22;68.46;;
36217;Laerm;22259;48.792;8.964;2023-06-22T12:27:24;50.43;41.26;68.56;;
36217;Laerm;22259;48.792;8.964;2023-06-22T12:29:50;52.21;41.46;73.20;;
36217;Laerm;22259;48.792;8.964;2023-06-22T12:32:15;55.56;40.87;70.46;;
36217;Laerm;22259;48.792;8.964;2023-06-22T12:34:44;43.54;40.55;55.52;;
36217;Laerm;22259;48.792;8.964;2023-06-22T12:37:10;43.24;40.78;53.14;;
36217;Laerm;22259;48.792;8.964;2023-06-22T12:39:35;48.18;39.75;63.94;;
36217;Laerm;22259;48.792;8.964;2023-06-22T12:42:01;46.77;40.05;63.05;;
36217;Laerm;22259;48.792;8.964;2023-06-22T12:44:26;56.38;40.38;71.69;;
36217;Laerm;22259;48.792;8.964;2023-06-22T12:46:51;55.68;40.36;69.66;;
36217;Laerm;22259;48.792;8.964;2023-06-22T12:49:17;47.78;40.28;63.64;;
36217;Laerm;22259;48.792;8.964;2023-06-22T12:51:43;49.01;40.23;65.19;;
36217;Laerm;22259;48.792;8.964;2023-06-22T12:54:09;48.96;40.50;71.32;;
36217;Laerm;22259;48.792;8.964;2023-06-22T12:56:35;46.78;40.50;61.19;;
36217;Laerm;22259;48.792;8.964;2023-06-22T12:59:00;48.00;41.09;61.85;;
36217;Laerm;22259;48.792;8.964;2023-06-22T13:01:29;58.49;41.59;72.13;;
36217;Laerm;22259;48.792;8.964;2023-06-22T13:03:55;45.77;41.08;61.31;;
36217;Laerm;22259;48.792;8.964;2023-06-22T13:06:21;52.87;41.44;70.55;;
36217;Laerm;22259;48.792;8.964;2023-06-22T13:08:46;54.71;41.70;73.32;;
36217;Laerm;22259;48.792;8.964;2023-06-22T13:11:12;45.38;42.26;58.59;;
36217;Laerm;22259;48.792;8.964;2023-06-22T13:13:38;45.38;42.55;63.68;;
36217;Laerm;22259;48.792;8.964;2023-06-22T13:16:03;57.38;41.66;73.43;;
36217;Laerm;22259;48.792;8.964;2023-06-22T13:18:29;53.10;41.46;69.67;;
36217;Laerm;22259;48.792;8.964;2023-06-22T13:20:54;47.79;41.96;64.81;;
36217;Laerm;22259;48.792;8.964;2023-06-22T13:23:22;44.16;41.53;51.12;;
36217;Laerm;22259;48.792;8.964;2023-06-22T13:25:48;44.10;41.10;51.05;;
36217;Laerm;22259;48.792;8.964;2023-06-22T13:28:13;43.43;39.95;51.79;;
36217;Laerm;22259;48.792;8.964;2023-06-22T13:30:41;43.75;40.64;53.94;;
36217;Laerm;22259;48.792;8.964;2023-06-22T13:33:06;58.95;41.73;72.71;;
36217;Laerm;22259;48.792;8.964;2023-06-22T13:35:32;51.82;41.68;69.97;;
36217;Laerm;22259;48.792;8.964;2023-06-22T13:37:57;44.38;40.97;62.83;;
36217;Laerm;22259;48.792;8.964;2023-06-22T13:40:23;43.78;39.95;55.53;;
36217;Laerm;22259;48.792;8.964;2023-06-22T13:42:48;47.03;40.55;59.83;;